Latest Weather Observations for Double Island Point

IDQ60801

Issued at 6:02 pm EST Tuesday 6 December 2016 (issued every 30 minutes, with the page automatically refreshed every 10 minutes)

About weather observations | Map of weather stations | Latest weather observations for QLD | Other Formats
Station Details ID: 040068 Name: DOUBLE ISLAND POINT LIGHTHOUSE Lat: -25.93 Lon: 153.19 Height: 95.64 m
Data from the previous 72 hours. | See also: Recent months at Double Island Point
Date/Time
EST
Temp
°C
App
Temp
°C
Dew
Point
°C
Rel
Hum
%
Delta-T
°C
Wind Press
QNH
hPa
Press
MSL
hPa
Rain since
9am
mm
Dir  Spd
km/h
Gust
km/h
Spd
kts
Gust
kts
06/05:30pm - - - - - NNW 13 20 7 11 1011.4 1010.9 0.0
06/05:00pm - - - - - NNW 7 11 4 6 1010.9 1010.4 0.0
06/04:30pm - - - - - NW 7 13 4 7 1010.7 1010.2 0.0
06/04:00pm - - - - - NNW 9 15 5 8 1010.7 1010.2 0.0
06/03:30pm - - - - - NW 9 13 5 7 1011.1 1010.6 0.0
06/03:00pm - - - - - NNW 9 15 5 8 1011.7 1011.2 0.0
06/02:30pm - - - - - N 11 17 6 9 1012.2 1011.7 0.0
06/02:00pm - - - - - N 11 15 6 8 1012.6 1012.1 0.0
06/01:30pm - - - - - NNW 11 20 6 11 1013.5 1013.0 0.0
06/01:00pm - - - - - N 13 20 7 11 1014.0 1013.5 0.0
06/12:30pm - - - - - N 15 30 8 16 1014.7 1014.2 0.0
06/12:00pm - - - - - N 19 32 10 17 1015.6 1015.1 0.0
06/11:30am - - - - - N 13 22 7 12 1016.2 1015.7 0.0
06/11:00am - - - - - N 13 22 7 12 1016.7 1016.2 0.0
06/10:30am - - - - - N 17 24 9 13 1017.4 1016.9 0.0
06/10:00am - - - - - N 19 24 10 13 1018.1 1017.6 0.0
06/09:30am - - - - - N 20 24 11 13 1018.4 1017.9 0.0
06/09:00am - - - - - NNE 17 24 9 13 1018.4 1017.9 0.0
06/08:30am - - - - - NE 13 20 7 11 1018.8 1018.3 0.0
06/08:00am - - - - - ENE 15 19 8 10 1019.1 1018.6 0.0
06/07:30am - - - - - SE 7 13 4 7 1019.0 1018.5 0.0
06/07:00am - - - - - S 15 19 8 10 1018.8 1018.3 0.0
06/06:30am - - - - - SSW 19 22 10 12 1018.4 1017.9 0.0
06/06:00am - - - - - ENE 2 7 1 4 1017.8 1017.3 0.0
06/05:30am - - - - - E 4 9 2 5 1016.6 1016.1 0.0
06/05:00am - - - - - NNW 6 11 3 6 1015.0 1014.5 0.0
06/04:30am - - - - - NNW 7 13 4 7 1014.9 1014.4 0.0
06/04:00am - - - - - N 7 11 4 6 1014.1 1013.6 0.0
06/03:30am - - - - - N 9 13 5 7 1014.0 1013.5 0.0
06/03:00am - - - - - N 9 13 5 7 1013.5 1013.0 0.0
06/02:30am - - - - - N 11 17 6 9 1013.5 1013.0 0.0
06/02:00am - - - - - N 13 20 7 11 1013.8 1013.3 0.0
06/01:30am - - - - - N 11 15 6 8 1014.1 1013.6 0.0
06/01:00am - - - - - N 13 17 7 9 1014.4 1013.9 0.0
06/12:30am - - - - - N 15 20 8 11 1014.5 1014.0 0.0
06/12:00am - - - - - N 15 22 8 12 1014.5 1014.0 0.0
 
Date/Time
EST
Temp
°C
App
Temp
°C
Dew
Point
°C
Rel
Hum
%
Delta-T
°C
Wind Press
QNH
hPa
Press
MSL
hPa
Rain since
9am
mm
Dir  Spd
km/h
Gust
km/h
Spd
kts
Gust
kts
05/11:30pm - - - - - NNW 15 20 8 11 1014.5 1014.0 0.0
05/11:00pm - - - - - N 13 20 7 11 1014.5 1014.0 0.0
05/10:30pm - - - - - N 11 17 6 9 1014.6 1014.1 0.0
05/10:00pm - - - - - N 11 15 6 8 1014.8 1014.3 0.0
05/09:30pm - - - - - N 11 17 6 9 1014.5 1014.0 0.0
05/09:00pm - - - - - N 9 17 5 9 1014.3 1013.8 0.0
05/08:30pm - - - - - N 11 17 6 9 1013.9 1013.4 0.0
05/08:00pm - - - - - N 11 19 6 10 1013.8 1013.3 0.0
05/07:30pm - - - - - N 13 19 7 10 1013.5 1013.0 0.0
05/07:00pm - - - - - N 13 22 7 12 1013.2 1012.8 0.0
05/06:30pm - - - - - NNW 15 32 8 17 1013.2 1012.8 0.0
05/06:00pm - - - - - NNW 19 35 10 19 1013.0 1012.6 0.0
05/05:30pm - - - - - NNW 22 39 12 21 1012.8 1012.3 0.0
05/05:00pm - - - - - N 24 41 13 22 1012.7 1012.2 0.0
05/04:30pm - - - - - N 20 37 11 20 1012.7 1012.2 0.0
05/04:03pm - - - - - N 30 48 16 26 1012.4 1011.9 0.0
05/04:00pm - - - - - N 32 48 17 26 1012.5 1012.0 0.0
05/03:30pm - - - - - N 37 56 20 30 1012.3 1011.8 0.0
05/03:19pm - - - - - N 37 56 20 30 1012.6 1012.1 0.0
05/03:00pm - - - - - N 39 54 21 29 1012.9 1012.5 0.0
05/02:43pm - - - - - N 35 54 19 29 1013.0 1012.6 0.0
05/02:30pm - - - - - N 43 56 23 30 1012.8 1012.3 0.0
05/02:00pm - - - - - N 44 54 24 29 1013.1 1012.7 0.0
05/01:30pm - - - - - N 39 50 21 27 1013.8 1013.3 0.0
05/01:00pm - - - - - N 22 41 12 22 1014.2 1013.7 0.0
05/12:30pm - - - - - N 33 50 18 27 1014.2 1013.7 0.0
05/12:00pm - - - - - N 26 41 14 22 1014.7 1014.2 0.0
05/11:30am - - - - - N 26 37 14 20 1015.3 1014.8 0.0
05/11:00am - - - - - N 30 41 16 22 1015.6 1015.1 0.0
05/10:30am - - - - - N 22 37 12 20 1016.0 1015.5 0.0
05/10:00am - - - - - N 15 28 8 15 1016.1 1015.6 0.0
05/09:30am - - - - - NNW 15 32 8 17 1016.2 1015.7 0.0
05/09:00am - - - - - N 15 30 8 16 1016.5 1016.0 0.0
05/08:30am - - - - - N 11 22 6 12 1016.6 1016.1 0.0
05/08:00am - - - - - N 9 13 5 7 1016.9 1016.4 0.0
05/07:30am - - - - - N 9 13 5 7 1017.1 1016.6 0.0
05/07:00am - - - - - N 9 13 5 7 1016.6 1016.1 0.0
05/06:30am - - - - - NNW 7 13 4 7 1016.5 1016.0 0.0
05/06:00am - - - - - N 6 9 3 5 1016.5 1016.0 0.0
05/05:30am - - - - - N 9 13 5 7 1016.1 1015.6 0.0
05/05:00am - - - - - N 7 13 4 7 1015.9 1015.4 0.0
05/04:30am - - - - - NNW 7 13 4 7 1015.5 1015.0 0.0
05/04:00am - - - - - N 6 11 3 6 1015.3 1014.8 0.0
05/03:30am - - - - - NNW 6 9 3 5 1015.2 1014.7 0.0
05/03:00am - - - - - NNW 7 13 4 7 1015.1 1014.6 0.0
05/02:30am - - - - - NNE 6 9 3 5 1015.1 1014.6 0.0
05/02:00am - - - - - N 7 11 4 6 1015.0 1014.5 0.0
05/01:30am - - - - - NNW 9 13 5 7 1015.0 1014.5 0.0
05/01:00am - - - - - NNW 17 24 9 13 1015.4 1014.9 0.0
05/12:30am - - - - - NNW 17 24 9 13 1015.6 1015.1 0.0
05/12:00am - - - - - NNW 15 20 8 11 1015.6 1015.1 0.0
 
Date/Time
EST
Temp
°C
App
Temp
°C
Dew
Point
°C
Rel
Hum
%
Delta-T
°C
Wind Press
QNH
hPa
Press
MSL
hPa
Rain since
9am
mm
Dir  Spd
km/h
Gust
km/h
Spd
kts
Gust
kts
04/11:30pm - - - - - NNW 11 17 6 9 1015.8 1015.3 0.0
04/11:00pm - - - - - N 9 13 5 7 1015.6 1015.1 0.0
04/10:30pm - - - - - NNE 9 15 5 8 1015.6 1015.1 0.0
04/10:00pm - - - - - N 9 15 5 8 1015.6 1015.1 0.0
04/09:30pm - - - - - NNW 9 13 5 7 1015.6 1015.1 0.0
04/09:00pm - - - - - NNW 9 13 5 7 1015.7 1015.2 0.0
04/08:30pm - - - - - NNW 11 20 6 11 1015.0 1014.5 0.0
04/08:00pm - - - - - NNW 19 39 10 21 1014.4 1013.9 0.0
04/07:30pm - - - - - NNW 19 33 10 18 1014.2 1013.7 0.0
04/07:00pm - - - - - N 22 41 12 22 1014.1 1013.6 0.0
04/06:30pm - - - - - N 28 46 15 25 1013.9 1013.4 0.0
04/06:02pm - - - - - N 32 50 17 27 1013.7 1013.2 0.0
04/06:00pm - - - - - N 33 50 18 27 1013.6 1013.1 0.0
04/05:30pm - - - - - N 35 50 19 27 1013.5 1013.0 0.0
04/05:00pm - - - - - NNE 43 56 23 30 1013.3 1012.9 0.0
04/04:30pm - - - - - N 37 50 20 27 1013.3 1012.9 0.0
04/04:00pm - - - - - NNE 41 52 22 28 1013.3 1012.9 0.0
04/03:30pm - - - - - NNE 44 56 24 30 1013.2 1012.8 0.0
04/03:00pm - - - - - NNE 43 50 23 27 1013.3 1012.9 0.0
04/02:30pm - - - - - NNE 39 50 21 27 1013.7 1013.2 0.0
04/02:00pm - - - - - NNE 39 46 21 25 1014.1 1013.6 0.0
04/01:30pm - - - - - NNE 37 43 20 23 1014.4 1013.9 0.0
04/01:00pm - - - - - NNE 35 43 19 23 1014.7 1014.2 0.0
04/12:30pm - - - - - NNE 37 44 20 24 1014.7 1014.2 0.0
04/12:00pm - - - - - N 30 43 16 23 1015.1 1014.6 0.0
04/11:30am - - - - - N 28 41 15 22 1015.6 1015.1 0.0
04/11:00am - - - - - N 26 39 14 21 1016.1 1015.6 0.0
04/10:30am - - - - - N 24 37 13 20 1016.3 1015.8 0.0
04/10:00am - - - - - N 22 32 12 17 1016.6 1016.1 0.0
04/09:30am - - - - - N 19 32 10 17 1016.7 1016.2 0.0
04/09:00am - - - - - NNW 9 19 5 10 1016.6 1016.1 4.6
04/08:30am - - - - - N 7 13 4 7 1016.9 1016.4 4.6
04/08:00am - - - - - NNW 7 11 4 6 1016.9 1016.4 4.6
04/07:30am - - - - - NNW 7 13 4 7 1016.4 1015.9 4.6
04/07:00am - - - - - N 2 6 1 3 1016.4 1015.9 4.6
04/06:30am - - - - - NNE 6 9 3 5 1016.4 1015.9 4.6
04/06:00am - - - - - S 6 9 3 5 1016.3 1015.8 4.6
04/05:30am - - - - - S 4 13 2 7 1016.2 1015.7 4.6
04/05:00am - - - - - NNW 6 13 3 7 1015.0 1014.5 4.6
04/04:30am - - - - - WNW 24 35 13 19 1014.0 1013.5 4.6
04/04:00am - - - - - WNW 35 44 19 24 1012.9 1012.5 4.6
04/03:30am - - - - - NW 30 35 16 19 1013.1 1012.7 4.6
04/03:00am - - - - - NW 19 24 10 13 1013.7 1013.2 4.6
04/02:30am - - - - - NW 17 22 9 12 1013.8 1013.3 4.6
04/02:00am - - - - - NW 22 28 12 15 1014.0 1013.5 4.6
04/01:30am - - - - - NNW 15 24 8 13 1014.5 1014.0 4.6
04/01:00am - - - - - NNW 11 19 6 10 1014.7 1014.2 4.6
04/12:30am - - - - - NNW 11 22 6 12 1015.0 1014.5 4.6
04/12:00am - - - - - NNW 9 17 5 9 1015.2 1014.7 4.6
 
Date/Time
EST
Temp
°C
App
Temp
°C
Dew
Point
°C
Rel
Hum
%
Delta-T
°C
Wind Press
QNH
hPa
Press
MSL
hPa
Rain since
9am
mm
Dir  Spd
km/h
Gust
km/h
Spd
kts
Gust
kts
03/11:30pm - - - - - N 19 24 10 13 1015.2 1014.7 4.6
03/11:04pm - - - - - NNE 56 78 30 42 1015.0 1014.5 4.4
03/11:03pm - - - - - NNE 59 78 32 42 1014.5 1014.0 4.4
03/11:00pm - - - - - NNE 65 78 35 42 1013.3 1012.9 4.4
03/10:54pm - - - - - NNE 61 78 33 42 1014.2 1013.7 4.4
03/10:45pm - - - - - NNE 50 65 27 35 1016.0 1015.5 4.2
03/10:33pm - - - - - NE 28 46 15 25 1016.6 1016.1 4.0
03/10:30pm - - - - - NE 30 41 16 22 1017.0 1016.5 3.8
03/10:25pm - - - - - ENE 33 41 18 22 1018.3 1017.8 3.4
03/10:00pm - - - - - ESE 28 32 15 17 1020.4 1019.9 2.0
03/09:30pm - - - - - ESE 24 28 13 15 1020.0 1019.5 0.4
03/09:00pm - - - - - SE 26 32 14 17 1020.0 1019.5 0.0
03/08:35pm - - - - - S 33 44 18 24 1019.4 1018.9 0.0
03/08:30pm - - - - - S 39 48 21 26 1019.4 1018.9 0.0
03/08:03pm - - - - - NNW 17 56 9 30 1018.4 1017.9 0.0
03/08:00pm - - - - - N 17 39 9 21 1017.2 1016.7 0.0
03/07:58pm - - - - - N 20 41 11 22 1016.0 1015.5 0.0
03/07:40pm - - - - - N 28 50 15 27 1014.0 1013.5 0.0
03/07:30pm - - - - - N 26 44 14 24 1014.4 1013.9 0.0
03/07:24pm - - - - - N 26 48 14 26 1014.3 1013.8 0.0
03/07:00pm - - - - - N 22 43 12 23 1012.2 1011.7 0.0
03/06:30pm - - - - - NNW 20 43 11 23 1012.1 1011.6 0.0

Other Formats:

Comma delimited format used in spreadsheet applications
http://www.bom.gov.au/fwo/IDQ60801/IDQ60801.94584.axf

JavaScript Object Notation format (JSON) in row-major order
http://www.bom.gov.au/fwo/IDQ60801/IDQ60801.94584.json